createdAt,value
2019-02-03T00:00:11.390Z,993.55
2019-02-03T00:01:11.381Z,993.60
2019-02-03T00:02:11.389Z,993.56
2019-02-03T00:03:11.389Z,993.58
2019-02-03T00:04:11.386Z,993.57
2019-02-03T00:05:11.339Z,993.59
2019-02-03T00:06:11.349Z,993.56
2019-02-03T00:07:11.345Z,993.54
2019-02-03T00:08:11.346Z,993.58
2019-02-03T00:09:11.312Z,993.54
2019-02-03T00:10:11.326Z,993.57
2019-02-03T00:11:11.300Z,993.55
2019-02-03T00:12:11.278Z,993.58
2019-02-03T00:13:11.269Z,993.57
2019-02-03T00:14:11.261Z,993.58
2019-02-03T00:15:11.272Z,993.55
2019-02-03T00:16:11.300Z,993.55
2019-02-03T00:17:11.274Z,993.55
2019-02-03T00:18:11.228Z,993.54
2019-02-03T00:19:11.205Z,993.56
2019-02-03T00:20:11.232Z,993.56
2019-02-03T00:21:11.216Z,993.57
2019-02-03T00:22:11.259Z,993.57
2019-02-03T00:23:11.181Z,993.59
2019-02-03T00:24:11.213Z,993.54
2019-02-03T00:25:11.192Z,993.56
2019-02-03T00:26:11.144Z,993.53
2019-02-03T00:27:11.148Z,993.52
2019-02-03T00:28:11.164Z,993.56
2019-02-03T00:29:11.193Z,993.55
2019-02-03T00:30:11.108Z,993.54
2019-02-03T00:31:11.104Z,993.59
2019-02-03T00:32:11.085Z,993.57
2019-02-03T00:33:11.079Z,993.60
2019-02-03T00:34:11.097Z,993.59
2019-02-03T00:35:11.089Z,993.57
2019-02-03T00:36:11.103Z,993.60
2019-02-03T00:37:16.565Z,993.59
2019-02-03T00:38:21.334Z,993.59
2019-02-03T00:39:11.136Z,993.59
2019-02-03T00:40:11.094Z,993.59
2019-02-03T00:41:11.134Z,993.61
2019-02-03T00:42:11.031Z,993.61
2019-02-03T00:43:11.005Z,993.61
2019-02-03T00:44:10.978Z,993.63
2019-02-03T00:45:10.981Z,993.67
2019-02-03T00:46:10.961Z,993.66
2019-02-03T00:47:10.954Z,993.65
2019-02-03T00:48:10.962Z,993.66
2019-02-03T00:49:10.970Z,993.67
2019-02-03T00:50:11.019Z,993.67
2019-02-03T00:51:10.944Z,993.71
2019-02-03T00:52:10.930Z,993.73
2019-02-03T00:53:10.889Z,993.77
2019-02-03T00:54:10.930Z,993.78
2019-02-03T00:55:10.913Z,993.78
2019-02-03T00:56:10.930Z,993.78
2019-02-03T00:57:10.910Z,993.85
2019-02-03T00:58:10.921Z,993.84
2019-02-03T00:59:10.870Z,993.85
2019-02-03T01:00:10.860Z,993.84
2019-02-03T01:01:10.818Z,993.84
2019-02-03T01:02:10.800Z,993.86
2019-02-03T01:03:10.811Z,993.89
2019-02-03T01:04:10.789Z,993.89
2019-02-03T01:05:10.797Z,993.90
2019-02-03T01:06:10.816Z,993.92
2019-02-03T01:07:10.769Z,993.96
2019-02-03T01:08:10.812Z,993.94
2019-02-03T01:09:10.740Z,993.99
2019-02-03T01:10:10.730Z,994.00
2019-02-03T01:11:10.734Z,993.94
2019-02-03T01:12:10.736Z,993.98
2019-02-03T01:13:10.759Z,993.99
2019-02-03T01:14:10.703Z,994.00
2019-02-03T01:15:10.689Z,994.02
2019-02-03T01:16:10.690Z,994.03
2019-02-03T01:17:10.677Z,994.08
2019-02-03T01:18:10.670Z,994.01
2019-02-03T01:19:10.671Z,994.05
2019-02-03T01:20:10.709Z,994.02
2019-02-03T01:21:10.660Z,994.04
2019-02-03T01:22:10.614Z,994.05
2019-02-03T01:23:10.624Z,994.06
2019-02-03T01:24:10.622Z,994.10
2019-02-03T01:25:10.603Z,994.09
2019-02-03T01:26:10.600Z,994.14
2019-02-03T01:27:10.573Z,994.12
2019-02-03T01:28:10.577Z,994.13
2019-02-03T01:29:10.549Z,994.14
2019-02-03T01:30:10.580Z,994.16
2019-02-03T01:31:10.542Z,994.17
2019-02-03T01:32:10.523Z,994.18
2019-02-03T01:33:10.509Z,994.18
2019-02-03T01:34:10.502Z,994.16
2019-02-03T01:35:10.511Z,994.16
2019-02-03T01:36:10.514Z,994.17
2019-02-03T01:37:10.499Z,994.14
2019-02-03T01:38:10.473Z,994.16
2019-02-03T01:39:10.467Z,994.16
2019-02-03T01:40:10.462Z,994.15
2019-02-03T01:41:10.426Z,994.18
2019-02-03T01:42:10.454Z,994.16
2019-02-03T01:43:10.437Z,994.12
2019-02-03T01:44:10.433Z,994.17
2019-02-03T01:45:10.425Z,994.17
2019-02-03T01:46:10.381Z,994.17
2019-02-03T01:47:10.379Z,994.19
2019-02-03T01:48:10.362Z,994.24
2019-02-03T01:49:10.390Z,994.34
2019-02-03T01:50:10.349Z,994.22
2019-02-03T01:51:10.362Z,994.30
2019-02-03T01:52:10.411Z,994.24
2019-02-03T01:53:10.301Z,994.28
2019-02-03T01:54:10.298Z,994.32
2019-02-03T01:55:10.335Z,994.31
2019-02-03T01:56:10.334Z,994.29
2019-02-03T01:57:10.306Z,994.33
2019-02-03T01:58:10.255Z,994.29
2019-02-03T01:59:10.251Z,994.27
2019-02-03T02:00:10.243Z,994.24
2019-02-03T02:01:10.256Z,994.27
2019-02-03T02:02:10.234Z,994.26
2019-02-03T02:03:10.201Z,994.21
2019-02-03T02:04:10.212Z,994.21
2019-02-03T02:05:10.196Z,994.19
2019-02-03T02:06:10.206Z,994.13
2019-02-03T02:07:10.201Z,994.16
2019-02-03T02:08:10.180Z,994.14
2019-02-03T02:09:10.220Z,994.16
2019-02-03T02:10:10.150Z,994.10
2019-02-03T02:11:10.139Z,994.03
2019-02-03T02:12:10.140Z,994.11
2019-02-03T02:13:10.113Z,994.07
2019-02-03T02:14:10.149Z,994.05
2019-02-03T02:15:10.106Z,994.05
2019-02-03T02:16:10.085Z,994.08
2019-02-03T02:17:10.095Z,994.02
2019-02-03T02:18:10.071Z,994.10
2019-02-03T02:19:10.041Z,994.13
2019-02-03T02:20:10.092Z,994.09
2019-02-03T02:21:10.048Z,994.21
2019-02-03T02:22:10.053Z,994.28
2019-02-03T02:23:10.036Z,994.35
2019-02-03T02:24:10.028Z,994.43
2019-02-03T02:25:10.018Z,994.47
2019-02-03T02:26:10.020Z,994.53
2019-02-03T02:27:10.047Z,994.57
2019-02-03T02:28:09.960Z,994.66
2019-02-03T02:29:09.957Z,994.71
2019-02-03T02:30:09.961Z,994.78
2019-02-03T02:31:09.986Z,994.85
2019-02-03T02:32:09.946Z,994.85
2019-02-03T02:33:09.908Z,994.93
2019-02-03T02:34:09.896Z,994.93
2019-02-03T02:35:09.888Z,994.95
2019-02-03T02:36:09.912Z,994.97
2019-02-03T02:37:09.856Z,995.04
2019-02-03T02:38:09.900Z,995.05
2019-02-03T02:39:09.873Z,995.08
2019-02-03T02:40:12.859Z,995.17
2019-02-03T02:41:09.852Z,995.18
2019-02-03T02:42:09.819Z,995.28
2019-02-03T02:43:09.798Z,995.33
2019-02-03T02:44:09.818Z,995.31
2019-02-03T02:45:09.810Z,995.37
2019-02-03T02:46:09.824Z,995.41
2019-02-03T02:47:09.763Z,995.43
2019-02-03T02:48:09.764Z,995.45
2019-02-03T02:49:09.744Z,995.56
2019-02-03T02:50:09.730Z,995.52
2019-02-03T02:51:09.712Z,995.66
2019-02-03T02:52:09.737Z,995.72
2019-02-03T02:53:09.705Z,995.80
2019-02-03T02:54:09.688Z,995.92
2019-02-03T02:55:09.705Z,995.89
2019-02-03T02:56:09.663Z,995.92
2019-02-03T03:14:28.121Z,996.04
2019-02-03T03:15:28.079Z,996.11
2019-02-03T03:16:28.082Z,996.17
2019-02-03T03:17:28.208Z,996.18
2019-02-03T03:18:28.027Z,996.20
2019-02-03T03:19:28.009Z,996.17
2019-02-03T03:20:28.008Z,996.18
2019-02-03T03:21:28.002Z,996.20
2019-02-03T03:22:28.020Z,996.17
2019-02-03T03:23:27.954Z,996.18
2019-02-03T03:24:27.942Z,996.22
2019-02-03T03:25:27.958Z,996.27
2019-02-03T03:26:27.922Z,996.27
2019-02-03T03:27:27.955Z,996.21
2019-02-03T03:28:27.931Z,996.24
2019-02-03T03:29:27.920Z,996.27
2019-02-03T03:30:27.910Z,996.22
2019-02-03T03:31:27.890Z,996.26
2019-02-03T03:32:27.871Z,996.31
2019-02-03T03:33:27.868Z,996.28
2019-02-03T03:34:27.841Z,996.24
2019-02-03T03:35:27.833Z,996.30
2019-02-03T03:36:27.856Z,996.31
2019-02-03T03:37:27.836Z,996.30
2019-02-03T03:38:32.155Z,996.31
2019-02-03T03:39:27.795Z,996.29
2019-02-03T03:40:27.785Z,996.36
2019-02-03T03:41:27.766Z,996.27
2019-02-03T03:42:27.828Z,996.27
2019-02-03T03:43:27.732Z,996.26
2019-02-03T03:44:27.759Z,996.28
2019-02-03T03:45:27.715Z,996.30
2019-02-03T03:46:27.783Z,996.26
2019-02-03T03:47:27.699Z,996.32
2019-02-03T03:48:27.766Z,996.25
2019-02-03T03:49:27.655Z,996.32
2019-02-03T03:50:27.654Z,996.27
2019-02-03T03:51:27.675Z,996.32
2019-02-03T03:52:27.633Z,996.31
2019-02-03T03:53:27.641Z,996.34
2019-02-03T03:54:27.651Z,996.34
2019-02-03T03:55:27.593Z,996.38
2019-02-03T03:56:27.605Z,996.38
2019-02-03T03:57:27.626Z,996.37
2019-02-03T03:58:27.588Z,996.45
2019-02-03T03:59:27.573Z,996.49
2019-02-03T04:00:27.553Z,996.46
2019-02-03T04:01:27.588Z,996.59
2019-02-03T04:02:27.526Z,996.42
2019-02-03T04:03:27.510Z,996.53
2019-02-03T04:04:27.531Z,996.51
2019-02-03T04:05:27.522Z,996.49
2019-02-03T04:06:27.504Z,996.54
2019-02-03T04:07:27.463Z,996.53
2019-02-03T04:08:27.468Z,996.55
2019-02-03T04:09:27.434Z,996.55
2019-02-03T04:10:27.462Z,996.58
2019-02-03T04:11:27.454Z,996.56
2019-02-03T04:12:27.429Z,996.64
2019-02-03T04:13:27.439Z,996.60
2019-02-03T04:14:27.377Z,996.58
2019-02-03T04:15:27.413Z,996.64
2019-02-03T04:16:27.453Z,996.53
2019-02-03T04:17:27.393Z,996.62
2019-02-03T04:18:27.343Z,996.62
2019-02-03T04:19:27.330Z,996.64
2019-02-03T04:20:27.326Z,996.59
2019-02-03T04:21:27.315Z,996.58
2019-02-03T04:22:27.315Z,996.56
2019-02-03T04:23:27.296Z,996.59
2019-02-03T04:24:27.305Z,996.62
2019-02-03T04:25:27.306Z,996.65
2019-02-03T04:26:27.257Z,996.64
2019-02-03T04:27:27.270Z,996.64
2019-02-03T04:28:27.253Z,996.67
2019-02-03T04:29:27.220Z,996.71
2019-02-03T04:30:27.219Z,996.72
2019-02-03T04:31:27.203Z,996.76
2019-02-03T04:32:27.227Z,996.74
2019-02-03T04:33:27.220Z,996.74
2019-02-03T04:34:29.827Z,996.71
2019-02-03T04:35:27.180Z,996.81
2019-02-03T04:36:27.170Z,996.84
2019-02-03T04:37:27.142Z,996.89
2019-02-03T04:38:27.373Z,996.94
2019-02-03T04:39:27.107Z,996.87
2019-02-03T04:40:27.129Z,996.89
2019-02-03T04:41:27.109Z,996.94
2019-02-03T04:42:27.115Z,996.99
2019-02-03T04:43:27.103Z,996.95
2019-02-03T04:44:27.060Z,996.92
2019-02-03T04:45:27.062Z,997.07
2019-02-03T04:46:27.073Z,996.99
2019-02-03T04:47:27.025Z,996.97
2019-02-03T04:48:27.039Z,997.02
2019-02-03T04:49:27.030Z,997.04
2019-02-03T04:50:27.014Z,997.07
2019-02-03T04:51:26.990Z,997.14
2019-02-03T04:52:26.997Z,997.11
2019-02-03T04:53:27.034Z,997.11
2019-02-03T04:54:26.957Z,997.11
2019-02-03T04:55:26.975Z,997.20
2019-02-03T04:56:26.945Z,997.17
2019-02-03T04:57:26.972Z,997.18
2019-02-03T04:58:26.913Z,997.19
2019-02-03T04:59:26.912Z,997.30
2019-02-03T05:00:26.903Z,997.24
2019-02-03T05:01:26.879Z,997.29
2019-02-03T05:02:26.878Z,997.26
2019-02-03T05:03:26.868Z,997.28
2019-02-03T05:04:26.862Z,997.29
2019-02-03T05:05:26.899Z,997.32
2019-02-03T05:06:26.859Z,997.34
2019-02-03T05:07:26.797Z,997.38
2019-02-03T05:08:26.811Z,997.40
2019-02-03T05:09:26.792Z,997.34
2019-02-03T05:10:26.786Z,997.41
2019-02-03T05:11:26.777Z,997.39
2019-02-03T05:12:26.751Z,997.46
2019-02-03T05:13:26.729Z,997.46
2019-02-03T05:14:26.719Z,997.47
2019-02-03T05:15:26.716Z,997.45
2019-02-03T05:16:26.715Z,997.50
2019-02-03T05:17:26.750Z,997.53
2019-02-03T05:18:26.725Z,997.50
2019-02-03T05:19:26.694Z,997.58
2019-02-03T05:20:26.670Z,997.60
2019-02-03T05:21:26.678Z,997.59
2019-02-03T05:22:26.725Z,997.63
2019-02-03T05:23:26.646Z,997.52
2019-02-03T05:24:26.666Z,997.63
2019-02-03T05:25:26.640Z,997.59
2019-02-03T05:26:26.588Z,997.64
2019-02-03T05:27:26.591Z,997.73
2019-02-03T05:28:26.590Z,997.77
2019-02-03T05:29:26.563Z,997.66
2019-02-03T05:30:26.600Z,997.71
2019-02-03T05:31:26.580Z,997.81
2019-02-03T05:32:26.524Z,997.80
2019-02-03T05:33:26.526Z,997.80
2019-02-03T05:34:26.534Z,997.83
2019-02-03T05:35:26.649Z,997.81
2019-02-03T05:36:26.537Z,997.91
2019-02-03T05:37:26.471Z,997.95
2019-02-03T05:38:26.457Z,997.92
2019-02-03T05:39:26.486Z,997.95
2019-02-03T05:40:26.480Z,998.05
2019-02-03T05:41:26.491Z,997.99
2019-02-03T05:42:26.423Z,998.02
2019-02-03T05:43:26.418Z,998.08
2019-02-03T05:44:26.423Z,998.02
2019-02-03T05:45:26.385Z,998.08
2019-02-03T05:46:26.478Z,998.21
2019-02-03T05:47:26.411Z,998.11
2019-02-03T05:48:26.345Z,998.13
2019-02-03T05:49:26.335Z,998.14
2019-02-03T05:50:26.327Z,998.20
2019-02-03T05:51:26.328Z,998.24
2019-02-03T05:52:26.333Z,998.21
2019-02-03T05:53:26.308Z,998.24
2019-02-03T05:54:26.279Z,998.21
2019-02-03T05:55:26.269Z,998.27
2019-02-03T05:56:26.275Z,998.25
2019-02-03T05:57:26.259Z,998.30
2019-02-03T05:58:26.269Z,998.32
2019-02-03T05:59:26.217Z,998.45
2019-02-03T06:00:26.205Z,998.33
2019-02-03T06:01:26.212Z,998.41
2019-02-03T06:02:26.203Z,998.34
2019-02-03T06:03:26.179Z,998.36
2019-02-03T06:04:26.161Z,998.47
2019-02-03T06:05:26.249Z,998.48
2019-02-03T06:06:26.136Z,998.48
2019-02-03T06:07:26.144Z,998.51
2019-02-03T06:08:26.182Z,998.54
2019-02-03T06:09:36.345Z,998.54
2019-02-03T06:10:26.096Z,998.64
2019-02-03T06:11:26.155Z,998.60
2019-02-03T06:12:26.094Z,998.62
2019-02-03T06:13:26.073Z,998.66
2019-02-03T06:14:26.053Z,998.66
2019-02-03T06:15:26.076Z,998.73
2019-02-03T06:16:26.060Z,998.74
2019-02-03T06:17:26.028Z,998.76
2019-02-03T06:18:26.009Z,998.79
2019-02-03T06:19:25.992Z,998.81
2019-02-03T06:20:25.987Z,998.86
2019-02-03T06:21:25.992Z,998.86
2019-02-03T06:22:25.954Z,998.88
2019-02-03T06:23:25.957Z,998.99
2019-02-03T06:24:25.939Z,998.99
2019-02-03T06:25:25.965Z,998.99
2019-02-03T06:26:26.079Z,999.03
2019-02-03T06:27:25.908Z,999.06
2019-02-03T06:28:25.908Z,999.03
2019-02-03T06:29:25.902Z,999.09
2019-02-03T06:30:25.886Z,999.15
2019-02-03T06:31:25.866Z,999.10
2019-02-03T06:32:25.886Z,999.10
2019-02-03T06:33:25.832Z,999.16
2019-02-03T06:34:25.859Z,999.23
2019-02-03T06:35:25.825Z,999.19
2019-02-03T06:36:25.841Z,999.18
2019-02-03T06:37:25.815Z,999.22
2019-02-03T06:38:25.775Z,999.27
2019-02-03T06:39:25.828Z,999.29
2019-02-03T06:40:25.780Z,999.33
2019-02-03T06:41:25.761Z,999.32
2019-02-03T06:42:25.758Z,999.41
2019-02-03T06:43:25.770Z,999.43
2019-02-03T06:44:25.771Z,999.44
2019-02-03T06:45:25.734Z,999.49
2019-02-03T06:46:25.693Z,999.54
2019-02-03T06:47:25.695Z,999.58
2019-02-03T06:48:25.706Z,999.62
2019-02-03T06:49:25.659Z,999.61
2019-02-03T06:50:25.644Z,999.63
2019-02-03T06:51:25.631Z,999.67
2019-02-03T06:52:25.643Z,999.67
2019-02-03T06:53:25.642Z,999.74
2019-02-03T06:54:25.616Z,999.79
2019-02-03T06:55:25.584Z,999.77
2019-02-03T06:56:25.580Z,999.85
2019-02-03T06:57:25.557Z,999.89
2019-02-03T06:58:25.578Z,999.91
2019-02-03T06:59:25.567Z,999.96
2019-02-03T07:00:25.564Z,1000.02
2019-02-03T07:01:25.535Z,1000.04
2019-02-03T07:02:25.505Z,1000.11
2019-02-03T07:03:25.491Z,1000.07
2019-02-03T07:04:25.617Z,1000.18
2019-02-03T07:05:25.498Z,1000.17
2019-02-03T07:06:25.489Z,1000.17
2019-02-03T07:07:25.442Z,1000.22
2019-02-03T07:08:25.457Z,1000.25
2019-02-03T07:09:25.435Z,1000.28
2019-02-03T07:10:25.491Z,1000.37
2019-02-03T07:11:25.553Z,1000.37
2019-02-03T07:12:25.704Z,1000.39
2019-02-03T07:13:25.765Z,1000.41
2019-02-03T07:14:25.899Z,1000.44
2019-02-03T07:15:25.363Z,1000.44
2019-02-03T07:16:25.368Z,1000.45
2019-02-03T07:17:25.363Z,1000.45
2019-02-03T07:18:25.321Z,1000.50
2019-02-03T07:19:25.304Z,1000.55
2019-02-03T07:20:25.303Z,1000.53
2019-02-03T07:21:25.304Z,1000.50
2019-02-03T07:22:25.275Z,1000.56
2019-02-03T07:23:25.259Z,1000.54
2019-02-03T07:24:25.258Z,1000.57
2019-02-03T07:25:25.256Z,1000.58
2019-02-03T07:26:25.259Z,1000.66
2019-02-03T07:27:25.246Z,1000.65
2019-02-03T07:28:25.245Z,1000.66
2019-02-03T07:29:25.193Z,1000.69
2019-02-03T07:30:25.185Z,1000.75
2019-02-03T07:31:25.172Z,1000.75
2019-02-03T07:32:25.193Z,1000.84
2019-02-03T07:33:25.173Z,1000.83
2019-02-03T07:34:25.147Z,1000.85
2019-02-03T07:35:25.145Z,1000.98
2019-02-03T07:36:25.115Z,1000.84
2019-02-03T07:37:25.112Z,1000.90
2019-02-03T07:38:25.121Z,1000.91
2019-02-03T07:39:25.095Z,1000.96
2019-02-03T07:40:25.079Z,1000.95
2019-02-03T07:41:25.062Z,1000.95
2019-02-03T07:42:33.745Z,1001.03
2019-02-03T07:44:18.500Z,1001.05
2019-02-03T07:45:18.437Z,1001.11
2019-02-03T07:46:18.416Z,1001.15
2019-02-03T07:47:18.439Z,1001.12
2019-02-03T07:48:18.446Z,1001.13
2019-02-03T07:49:18.414Z,1001.18
2019-02-03T07:50:18.398Z,1001.14
2019-02-03T07:51:18.361Z,1001.16
2019-02-03T07:52:18.418Z,1001.20
2019-02-03T07:53:18.352Z,1001.21
2019-02-03T07:54:18.402Z,1001.21
2019-02-03T07:55:18.363Z,1001.22
2019-02-03T07:56:18.373Z,1001.33
2019-02-03T07:57:18.299Z,1001.29
2019-02-03T07:58:18.301Z,1001.26
2019-02-03T07:59:18.300Z,1001.37
2019-02-03T08:00:18.416Z,1001.30
2019-02-03T08:01:18.273Z,1001.32
2019-02-03T08:02:18.255Z,1001.31
2019-02-03T08:03:18.232Z,1001.43
2019-02-03T08:04:18.258Z,1001.36
2019-02-03T08:05:18.204Z,1001.40
2019-02-03T08:06:18.239Z,1001.43
2019-02-03T08:07:18.195Z,1001.42
2019-02-03T08:08:18.239Z,1001.52
2019-02-03T08:09:18.166Z,1001.59
2019-02-03T08:10:25.881Z,1001.53
2019-02-03T08:11:18.157Z,1001.56
2019-02-03T08:12:18.127Z,1001.58
2019-02-03T08:13:18.113Z,1001.64
2019-02-03T08:14:18.155Z,1001.62
2019-02-03T08:15:18.090Z,1001.65
2019-02-03T08:16:18.102Z,1001.69
2019-02-03T08:17:18.072Z,1001.68
2019-02-03T08:18:18.054Z,1001.73
2019-02-03T08:19:18.093Z,1001.71
2019-02-03T08:20:18.043Z,1001.79
2019-02-03T08:21:18.051Z,1001.78
2019-02-03T08:22:18.008Z,1001.80
2019-02-03T08:23:18.008Z,1001.83
2019-02-03T08:24:18.019Z,1001.83
2019-02-03T08:25:17.993Z,1001.89
2019-02-03T08:26:17.971Z,1001.92
2019-02-03T08:27:18.023Z,1001.90
2019-02-03T08:28:17.949Z,1001.97
2019-02-03T08:29:17.956Z,1002.02
2019-02-03T08:30:17.942Z,1001.99
2019-02-03T08:31:17.920Z,1002.04
2019-02-03T08:32:17.931Z,1002.04
2019-02-03T08:33:17.887Z,1002.10
2019-02-03T08:34:17.898Z,1002.06
2019-02-03T08:35:19.921Z,1002.12
2019-02-03T08:36:17.862Z,1002.07
2019-02-03T08:37:17.856Z,1002.23
2019-02-03T08:38:17.863Z,1002.18
2019-02-03T08:39:17.822Z,1002.20
2019-02-03T08:40:17.824Z,1002.23
2019-02-03T08:41:17.873Z,1002.15
2019-02-03T08:42:17.799Z,1002.17
2019-02-03T08:43:17.782Z,1002.19
2019-02-03T08:44:17.799Z,1002.17
2019-02-03T08:45:17.795Z,1002.19
2019-02-03T08:46:17.767Z,1002.26
2019-02-03T08:47:17.750Z,1002.25
2019-02-03T08:48:17.770Z,1002.20
2019-02-03T08:49:17.721Z,1002.23
2019-02-03T08:50:17.701Z,1002.24
2019-02-03T08:51:17.695Z,1002.28
2019-02-03T08:52:17.674Z,1002.30
2019-02-03T08:53:17.698Z,1002.34
2019-02-03T08:54:17.683Z,1002.33
2019-02-03T08:55:17.672Z,1002.34
2019-02-03T08:56:17.657Z,1002.39
2019-02-03T08:57:17.628Z,1002.41
2019-02-03T08:58:17.647Z,1002.41
2019-02-03T08:59:17.640Z,1002.49
2019-02-03T09:00:17.649Z,1002.46
2019-02-03T09:01:17.581Z,1002.49
2019-02-03T09:02:17.619Z,1002.48
2019-02-03T09:03:17.584Z,1002.53
2019-02-03T09:04:17.545Z,1002.52
2019-02-03T09:05:17.532Z,1002.53
2019-02-03T09:06:17.526Z,1002.56
2019-02-03T09:07:17.540Z,1002.58
2019-02-03T09:08:17.521Z,1002.61
2019-02-03T09:09:17.545Z,1002.68
2019-02-03T09:10:17.485Z,1002.55
2019-02-03T09:11:17.493Z,1002.57
2019-02-03T09:12:17.464Z,1002.51
2019-02-03T09:13:17.443Z,1002.54
2019-02-03T09:14:17.474Z,1002.61
2019-02-03T09:15:19.547Z,1002.63
2019-02-03T09:16:17.420Z,1002.68
2019-02-03T09:17:17.423Z,1002.66
2019-02-03T09:18:17.402Z,1002.71
2019-02-03T09:19:17.387Z,1002.73
2019-02-03T09:20:17.399Z,1002.75
2019-02-03T09:21:17.377Z,1002.82
2019-02-03T09:22:17.394Z,1002.80
2019-02-03T09:23:17.332Z,1002.82
2019-02-03T09:24:17.353Z,1002.87
2019-02-03T09:25:17.315Z,1002.91
2019-02-03T09:26:17.330Z,1002.91
2019-02-03T09:27:17.301Z,1002.90
2019-02-03T09:28:17.330Z,1002.93
2019-02-03T09:29:17.294Z,1002.92
2019-02-03T09:30:17.300Z,1003.01
2019-02-03T09:31:17.257Z,1002.96
2019-02-03T09:32:17.282Z,1002.99
2019-02-03T09:33:17.273Z,1003.02
2019-02-03T09:34:17.234Z,1003.04
2019-02-03T09:35:17.217Z,1003.11
2019-02-03T09:36:17.282Z,1003.13
2019-02-03T09:37:17.242Z,1003.11
2019-02-03T09:38:17.228Z,1003.17
2019-02-03T09:39:17.170Z,1003.17
2019-02-03T09:40:17.166Z,1003.16
2019-02-03T09:41:17.188Z,1003.22
2019-02-03T09:42:17.176Z,1003.24
2019-02-03T09:43:17.116Z,1003.29
2019-02-03T09:45:49.254Z,1003.31
2019-02-03T09:46:49.235Z,1003.36
2019-02-03T09:47:49.244Z,1003.39
2019-02-03T09:48:49.228Z,1003.42
2019-02-03T09:49:49.206Z,1003.50
2019-02-03T09:50:49.189Z,1003.47
2019-02-03T09:51:49.177Z,1003.46
2019-02-03T09:52:49.177Z,1003.48
2019-02-03T09:53:49.186Z,1003.52
2019-02-03T09:54:50.204Z,1003.50
2019-02-03T09:55:49.156Z,1003.55
2019-02-03T09:56:49.153Z,1003.51
2019-02-03T09:57:49.124Z,1003.52
2019-02-03T09:58:49.133Z,1003.58
2019-02-03T09:59:49.092Z,1003.50
2019-02-03T10:00:49.077Z,1003.57
2019-02-03T10:01:49.100Z,1003.61
2019-02-03T10:02:49.058Z,1003.65
2019-02-03T10:03:49.059Z,1003.65
2019-02-03T10:04:49.086Z,1003.67
2019-02-03T10:05:49.038Z,1003.70
2019-02-03T10:06:49.011Z,1003.74
2019-02-03T10:07:49.027Z,1003.75
2019-02-03T10:08:49.022Z,1003.76
2019-02-03T10:09:48.999Z,1003.79
2019-02-03T10:10:48.997Z,1003.72
2019-02-03T10:11:48.967Z,1003.74
2019-02-03T10:12:48.977Z,1003.78
2019-02-03T10:13:48.940Z,1003.80
2019-02-03T10:14:48.927Z,1003.85
2019-02-03T10:15:48.936Z,1003.84
2019-02-03T10:16:48.933Z,1003.91
2019-02-03T10:17:48.925Z,1003.91
2019-02-03T10:18:48.902Z,1003.98
2019-02-03T10:19:48.899Z,1004.03
2019-02-03T10:20:48.864Z,1004.05
2019-02-03T10:21:48.851Z,1004.02
2019-02-03T10:22:48.872Z,1004.00
2019-02-03T10:23:48.826Z,1004.06
2019-02-03T10:24:48.823Z,1004.07
2019-02-03T10:25:48.829Z,1004.04
2019-02-03T10:26:48.796Z,1004.06
2019-02-03T10:27:48.812Z,1004.07
2019-02-03T10:28:48.774Z,1004.07
2019-02-03T10:29:48.764Z,1004.09
2019-02-03T10:30:48.771Z,1004.10
2019-02-03T10:31:48.755Z,1004.15
2019-02-03T10:32:48.733Z,1004.11
2019-02-03T10:33:48.723Z,1004.15
2019-02-03T10:34:48.756Z,1004.16
2019-02-03T10:35:48.746Z,1004.18
2019-02-03T10:36:48.726Z,1004.18
2019-02-03T10:37:48.697Z,1004.18
2019-02-03T10:38:48.661Z,1004.14
2019-02-03T10:39:48.712Z,1004.20
2019-02-03T10:40:48.681Z,1004.23
2019-02-03T10:41:48.711Z,1004.20
2019-02-03T10:42:48.624Z,1004.19
2019-02-03T10:43:48.685Z,1004.23
2019-02-03T10:44:48.601Z,1004.22
2019-02-03T10:45:48.620Z,1004.20
2019-02-03T10:46:48.585Z,1004.22
2019-02-03T10:47:48.568Z,1004.23
2019-02-03T10:48:48.595Z,1004.25
2019-02-03T10:49:48.578Z,1004.22
2019-02-03T10:50:48.534Z,1004.21
2019-02-03T10:51:48.984Z,1004.23
2019-02-03T10:52:48.539Z,1004.22
2019-02-03T10:53:48.533Z,1004.23
2019-02-03T10:54:48.495Z,1004.32
2019-02-03T10:55:48.512Z,1004.27
2019-02-03T10:56:48.494Z,1004.35
2019-02-03T10:57:48.502Z,1004.28
2019-02-03T10:58:48.502Z,1004.34
2019-02-03T10:59:48.594Z,1004.31
2019-02-03T11:00:48.434Z,1004.33
2019-02-03T11:01:48.433Z,1004.36
2019-02-03T11:02:48.429Z,1004.34
2019-02-03T11:03:48.414Z,1004.40
2019-02-03T11:04:48.397Z,1004.37
2019-02-03T11:05:48.415Z,1004.43
2019-02-03T11:06:48.380Z,1004.35
2019-02-03T11:07:48.351Z,1004.39
2019-02-03T11:08:48.367Z,1004.41
2019-02-03T11:09:48.354Z,1004.44
2019-02-03T11:10:48.355Z,1004.43
2019-02-03T11:11:48.315Z,1004.48
2019-02-03T11:12:48.313Z,1004.47
2019-02-03T11:13:48.302Z,1004.46
2019-02-03T11:14:48.327Z,1004.50
2019-02-03T11:15:48.275Z,1004.50
2019-02-03T11:16:48.274Z,1004.56
2019-02-03T11:17:48.260Z,1004.52
2019-02-03T11:18:48.274Z,1004.56
2019-02-03T11:19:48.264Z,1004.56
2019-02-03T11:20:48.236Z,1004.55
2019-02-03T11:21:48.223Z,1004.59
2019-02-03T11:22:48.204Z,1004.59
2019-02-03T11:23:48.205Z,1004.60
2019-02-03T11:24:48.204Z,1004.58
2019-02-03T11:25:48.189Z,1004.62
2019-02-03T11:26:48.170Z,1004.62
2019-02-03T11:27:48.156Z,1004.66
2019-02-03T11:28:48.137Z,1004.63
2019-02-03T11:29:48.154Z,1004.62
2019-02-03T11:30:48.143Z,1004.63
2019-02-03T11:31:48.104Z,1004.60
2019-02-03T11:32:48.121Z,1004.61
2019-02-03T11:33:48.088Z,1004.62
2019-02-03T11:34:48.072Z,1004.69
2019-02-03T11:35:48.075Z,1004.70
2019-02-03T11:36:48.090Z,1004.71
2019-02-03T11:37:48.042Z,1004.75
2019-02-03T11:38:48.038Z,1004.74
2019-02-03T11:39:48.023Z,1004.75
2019-02-03T11:40:48.006Z,1004.73
2019-02-03T11:41:49.524Z,1004.78
2019-02-03T11:42:47.998Z,1004.77
2019-02-03T11:43:47.983Z,1004.80
2019-02-03T11:44:48.021Z,1004.84
2019-02-03T11:45:47.967Z,1004.77
2019-02-03T11:46:47.955Z,1004.82
2019-02-03T11:47:47.951Z,1004.82
2019-02-03T11:48:47.946Z,1004.83
2019-02-03T11:49:47.917Z,1004.77
2019-02-03T11:50:47.909Z,1004.85
2019-02-03T11:51:47.893Z,1004.87
2019-02-03T11:52:47.887Z,1004.83
2019-02-03T11:53:47.901Z,1004.81
2019-02-03T11:54:47.892Z,1004.83
2019-02-03T11:55:47.870Z,1004.86
2019-02-03T11:56:47.894Z,1004.92
2019-02-03T11:57:47.842Z,1004.86
2019-02-03T11:58:47.903Z,1004.89
2019-02-03T11:59:47.822Z,1004.94
2019-02-03T12:00:47.820Z,1005.09
2019-02-03T12:01:47.835Z,1004.92
2019-02-03T12:02:47.783Z,1004.98
2019-02-03T12:03:47.772Z,1005.05
2019-02-03T12:04:47.780Z,1004.99
2019-02-03T12:05:47.823Z,1004.99
2019-02-03T12:06:47.771Z,1004.98
2019-02-03T12:07:47.742Z,1005.00
2019-02-03T12:08:47.724Z,1005.01
2019-02-03T12:09:47.711Z,1005.04
2019-02-03T12:10:47.707Z,1005.06
2019-02-03T12:11:47.716Z,1005.03
2019-02-03T12:12:47.703Z,1004.98
2019-02-03T12:13:47.675Z,1005.09
2019-02-03T12:14:47.667Z,1005.06
2019-02-03T12:15:48.198Z,1004.99
2019-02-03T12:16:47.671Z,1005.07
2019-02-03T12:17:47.657Z,1005.10
2019-02-03T12:18:47.724Z,1005.01
2019-02-03T12:19:47.617Z,1005.06
2019-02-03T12:20:47.595Z,1005.09
2019-02-03T12:21:47.591Z,1005.10
2019-02-03T12:22:56.262Z,1005.11
2019-02-03T12:24:41.012Z,1005.16
2019-02-03T12:25:40.973Z,1005.16
2019-02-03T12:26:40.955Z,1005.23
2019-02-03T12:27:40.998Z,1005.17
2019-02-03T12:28:40.957Z,1005.22
2019-02-03T12:29:40.962Z,1005.16
2019-02-03T12:30:40.917Z,1005.22
2019-02-03T12:31:40.920Z,1005.21
2019-02-03T12:32:40.898Z,1005.27
2019-02-03T12:33:40.930Z,1005.23
2019-02-03T12:34:40.925Z,1005.27
2019-02-03T12:35:40.943Z,1005.32
2019-02-03T12:36:40.875Z,1005.28
2019-02-03T12:37:40.857Z,1005.25
2019-02-03T12:38:40.854Z,1005.28